Time;durP1;ratioP1;P1;durP2;ratioP2;P2;SDS_P1;SDS_P2;PMS_P1;PMS_P2;Temp;Humidity;BMP_temperature;BMP_pressure;BME280_temperature;BME280_humidity;BME280_pressure;Samples;Min_cycle;Max_cycle;Signal;HPM_P1;HPM_P2
2021/10/27 00:01:22;;;;;;;;;;;;;;;;;;5099896;28;19912;-74
2021/10/27 00:03:47;;;;;;;;;;;;;;;;;;5102244;28;19908;-73
2021/10/27 00:06:13;;;;;;;;;;;;;;;;;;5101961;28;19916;-73
2021/10/27 00:08:38;;;;;;;;;;;;;;;;;;5102048;28;19934;-74
2021/10/27 00:11:03;;;;;;;;;;;;;;;;;;5102208;28;19900;-74
2021/10/27 00:13:28;;;;;;;;;;;;;;;;;;5092655;28;19908;-74
2021/10/27 00:15:53;;;;;;;;;;;;;;;;;;5102953;28;19901;-74
2021/10/27 00:18:19;;;;;;;;;;;;;;;;;;5085357;28;19924;-74
2021/10/27 00:20:44;;;;;;;;;;;;;;;;;;5102540;28;19955;-75
2021/10/27 00:23:10;;;;;;;;;;;;;;;;;;5120375;28;19908;-74
2021/10/27 00:25:35;;;;;;;;;;;;;;;;;;5100578;28;19900;-74
2021/10/27 00:28:00;;;;;;;;;;;;;;;;;;5103213;28;19912;-74
2021/10/27 00:30:25;;;;;;;;;;;;;;;;;;5093734;28;19896;-74
2021/10/27 00:32:51;;;;;;;;;;;;;;;;;;5102530;28;20335;-75
2021/10/27 00:35:16;;;;;;;;;;;;;;;;;;5103580;28;19959;-73
2021/10/27 00:37:41;;;;;;;;;;;;;;;;;;5105208;28;19919;-74
2021/10/27 00:40:06;;;;;;;;;;;;;;;;;;5082217;28;19903;-74
2021/10/27 00:42:32;;;;;;;;;;;;;;;;;;5098801;28;19915;-75
2021/10/27 00:44:57;;;;;;;;;;;;;;;;;;5098537;28;19963;-75
2021/10/27 00:47:22;;;;;;;;;;;;;;;;;;5106129;28;19897;-74
2021/10/27 00:49:47;;;;;;;;;;;;;;;;;;5099329;28;19916;-74
2021/10/27 00:52:13;;;;;;;;;;;;;;;;;;5106063;28;19909;-74
2021/10/27 00:54:38;;;;;;;;;;;;;;;;;;5097835;28;19939;-74
2021/10/27 00:57:03;;;;;;;;;;;;;;;;;;5103827;28;19922;-74
2021/10/27 00:59:29;;;;;;;;;;;;;;;;;;5112645;28;19963;-74
2021/10/27 01:01:54;;;;;;;;;;;;;;;;;;5109656;28;19904;-74
2021/10/27 01:04:21;;;;;;;;;;;;;;;;;;5107760;28;19920;-74
2021/10/27 01:06:47;;;;;;;;;;;;;;;;;;5109434;28;19939;-74
2021/10/27 01:09:12;;;;;;;;;;;;;;;;;;5110549;28;19896;-74
2021/10/27 01:11:37;;;;;;;;;;;;;;;;;;5102068;28;19908;-74
2021/10/27 01:14:02;;;;;;;;;;;;;;;;;;5104168;28;19907;-74
2021/10/27 01:16:27;;;;;;;;;;;;;;;;;;5105200;28;19892;-74
2021/10/27 01:18:55;;;;;;;;;;;;;;;;;;5108891;28;19914;-75
2021/10/27 01:21:20;;;;;;;;;;;;;;;;;;5107429;28;19955;-74
2021/10/27 01:23:45;;;;;;;;;;;;;;;;;;5106879;28;19926;-75
2021/10/27 01:26:11;;;;;;;;;;;;;;;;;;5096972;28;19904;-74
2021/10/27 01:28:36;;;;;;;;;;;;;;;;;;5106545;28;19907;-74
2021/10/27 01:31:01;;;;;;;;;;;;;;;;;;5105088;28;19901;-74
2021/10/27 01:33:26;;;;;;;;;;;;;;;;;;5103441;28;19915;-74
2021/10/27 01:35:52;;;;;;;;;;;;;;;;;;5113318;28;19916;-75
2021/10/27 01:38:18;;;;;;;;;;;;;;;;;;5103959;28;19900;-73
2021/10/27 01:40:43;;;;;;;;;;;;;;;;;;5103637;28;19919;-74
2021/10/27 01:43:08;;;;;;;;;;;;;;;;;;5108291;28;20192;-74
2021/10/27 01:45:34;;;;;;;;;;;;;;;;;;5105350;28;19900;-74
2021/10/27 01:47:59;;;;;;;;;;;;;;;;;;5105443;28;19908;-74
2021/10/27 01:50:25;;;;;;;;;;;;;;;;;;5105839;28;19963;-74
2021/10/27 01:52:50;;;;;;;;;;;;;;;;;;5096380;28;19915;-73
2021/10/27 01:55:16;;;;;;;;;;;;;;;;;;5105206;28;19896;-74
2021/10/27 01:57:41;;;;;;;;;;;;;;;;;;5096995;28;19901;-74
2021/10/27 02:00:06;;;;;;;;;;;;;;;;;;5106677;28;19923;-74
2021/10/27 02:02:37;;;;;;;;;;;;;;;;;;5104757;28;19904;-73
2021/10/27 02:05:02;;;;;;;;;;;;;;;;;;5106661;28;19931;-74
2021/10/27 02:07:28;;;;;;;;;;;;;;;;;;5105088;28;19896;-73
2021/10/27 02:09:53;;;;;;;;;;;;;;;;;;5106291;28;19907;-74
2021/10/27 02:12:19;;;;;;;;;;;;;;;;;;5104512;28;19901;-73
2021/10/27 02:14:44;;;;;;;;;;;;;;;;;;5105211;28;19930;-74
2021/10/27 02:17:10;;;;;;;;;;;;;;;;;;5100845;28;19901;-74
2021/10/27 02:19:35;;;;;;;;;;;;;;;;;;5105746;28;20176;-74
2021/10/27 02:22:00;;;;;;;;;;;;;;;;;;5103050;28;19915;-74
2021/10/27 02:24:25;;;;;;;;;;;;;;;;;;5104877;28;19930;-74
2021/10/27 02:26:51;;;;;;;;;;;;;;;;;;5106035;28;19900;-74
2021/10/27 02:29:16;;;;;;;;;;;;;;;;;;5104643;28;19908;-74
2021/10/27 02:31:41;;;;;;;;;;;;;;;;;;5104194;28;19931;-74
2021/10/27 02:34:06;;;;;;;;;;;;;;;;;;5105130;28;19972;-74
2021/10/27 02:36:32;;;;;;;;;;;;;;;;;;5106135;28;19900;-74
2021/10/27 02:38:57;;;;;;;;;;;;;;;;;;5108019;28;19896;-74
2021/10/27 02:41:22;;;;;;;;;;;;;;;;;;5103908;28;19977;-75
2021/10/27 02:43:47;;;;;;;;;;;;;;;;;;5105528;28;20075;-74
2021/10/27 02:46:13;;;;;;;;;;;;;;;;;;5105837;28;19897;-75
2021/10/27 02:48:38;;;;;;;;;;;;;;;;;;5108331;28;19912;-74
2021/10/27 02:51:03;;;;;;;;;;;;;;;;;;5105476;28;19908;-74
2021/10/27 02:53:29;;;;;;;;;;;;;;;;;;5102946;28;19967;-74
2021/10/27 02:55:54;;;;;;;;;;;;;;;;;;5103550;28;19897;-74
2021/10/27 02:58:19;;;;;;;;;;;;;;;;;;5101021;28;19939;-74
2021/10/27 03:00:44;;;;;;;;;;;;;;;;;;5094877;28;19896;-74
2021/10/27 03:03:10;;;;;;;;;;;;;;;;;;5092031;28;19912;-74
2021/10/27 03:05:35;;;;;;;;;;;;;;;;;;5104745;28;20184;-74
2021/10/27 03:08:00;;;;;;;;;;;;;;;;;;5104978;28;19935;-74
2021/10/27 03:10:26;;;;;;;;;;;;;;;;;;5103981;28;19911;-75
2021/10/27 03:12:51;;;;;;;;;;;;;;;;;;5092360;28;19908;-74
2021/10/27 03:15:16;;;;;;;;;;;;;;;;;;5105171;28;19918;-75
2021/10/27 03:17:42;;;;;;;;;;;;;;;;;;5105295;28;20232;-74
2021/10/27 03:20:07;;;;;;;;;;;;;;;;;;5101548;28;19897;-74
2021/10/27 03:22:33;;;;;;;;;;;;;;;;;;5080079;28;19904;-75
2021/10/27 03:24:58;;;;;;;;;;;;;;;;;;5095292;28;19971;-75
2021/10/27 03:27:23;;;;;;;;;;;;;;;;;;5106304;28;19900;-75
2021/10/27 03:29:48;;;;;;;;;;;;;;;;;;5102083;28;19952;-75
2021/10/27 03:32:13;;;;;;;;;;;;;;;;;;5091897;28;19927;-73
2021/10/27 03:34:39;;;;;;;;;;;;;;;;;;5103430;28;19900;-73
2021/10/27 03:37:04;;;;;;;;;;;;;;;;;;5102489;28;19910;-74
2021/10/27 03:39:29;;;;;;;;;;;;;;;;;;5104913;28;19916;-74
2021/10/27 03:41:55;;;;;;;;;;;;;;;;;;5102686;28;19900;-74
2021/10/27 03:44:20;;;;;;;;;;;;;;;;;;5092751;28;19915;-73
2021/10/27 03:46:45;;;;;;;;;;;;;;;;;;5100034;28;19897;-74
2021/10/27 03:49:10;;;;;;;;;;;;;;;;;;5106311;28;19912;-74
2021/10/27 03:51:36;;;;;;;;;;;;;;;;;;5100712;28;19958;-74
2021/10/27 03:54:01;;;;;;;;;;;;;;;;;;5095340;28;19897;-74
2021/10/27 03:56:26;;;;;;;;;;;;;;;;;;5102235;28;19943;-74
2021/10/27 03:58:51;;;;;;;;;;;;;;;;;;5101451;28;19896;-74
2021/10/27 04:01:17;;;;;;;;;;;;;;;;;;5098890;28;19995;-73
2021/10/27 04:03:42;;;;;;;;;;;;;;;;;;5103375;28;19924;-74
2021/10/27 04:06:07;;;;;;;;;;;;;;;;;;5101725;28;19900;-73
2021/10/27 04:08:32;;;;;;;;;;;;;;;;;;5095616;28;19928;-74
2021/10/27 04:10:57;;;;;;;;;;;;;;;;;;5104249;28;19908;-74
2021/10/27 04:13:23;;;;;;;;;;;;;;;;;;5105470;28;19971;-74
2021/10/27 04:15:48;;;;;;;;;;;;;;;;;;5114790;28;19900;-74
2021/10/27 04:18:13;;;;;;;;;;;;;;;;;;5105756;28;19900;-74
2021/10/27 04:20:38;;;;;;;;;;;;;;;;;;5107973;28;19924;-74
2021/10/27 04:23:04;;;;;;;;;;;;;;;;;;5104973;28;20097;-74
2021/10/27 04:25:29;;;;;;;;;;;;;;;;;;5099109;28;19923;-74
2021/10/27 04:27:54;;;;;;;;;;;;;;;;;;5080421;28;19900;-74
2021/10/27 04:30:19;;;;;;;;;;;;;;;;;;5107202;28;19908;-74
2021/10/27 04:32:45;;;;;;;;;;;;;;;;;;5079780;28;19908;-74
2021/10/27 04:35:10;;;;;;;;;;;;;;;;;;5105317;28;20165;-74
2021/10/27 04:37:39;;;;;;;;;;;;;;;;;;5073102;28;19915;-74
2021/10/27 04:40:04;;;;;;;;;;;;;;;;;;5107002;28;19900;-74
2021/10/27 04:42:29;;;;;;;;;;;;;;;;;;5108088;28;19908;-74
2021/10/27 04:44:55;;;;;;;;;;;;;;;;;;5107960;28;19912;-74
2021/10/27 04:47:20;;;;;;;;;;;;;;;;;;5098340;28;19959;-74
2021/10/27 04:49:45;;;;;;;;;;;;;;;;;;5098310;28;19932;-74
2021/10/27 04:52:11;;;;;;;;;;;;;;;;;;5107589;28;19908;-74
2021/10/27 04:54:37;;;;;;;;;;;;;;;;;;5123458;28;19935;-74
2021/10/27 04:57:02;;;;;;;;;;;;;;;;;;5107024;28;19897;-74
2021/10/27 04:59:35;;;;;;;;;;;;;;;;;;5106922;28;19915;-74
2021/10/27 05:02:00;;;;;;;;;;;;;;;;;;5108291;28;19904;-75
2021/10/27 05:04:26;;;;;;;;;;;;;;;;;;5094327;28;19908;-74
2021/10/27 05:06:51;;;;;;;;;;;;;;;;;;5104782;28;19910;-74
2021/10/27 05:09:16;;;;;;;;;;;;;;;;;;5097073;28;19965;-75
2021/10/27 05:11:41;;;;;;;;;;;;;;;;;;5110178;28;19911;-74
2021/10/27 05:14:06;;;;;;;;;;;;;;;;;;5090723;28;19931;-74
2021/10/27 05:16:32;;;;;;;;;;;;;;;;;;5105786;28;19900;-75
2021/10/27 05:18:57;;;;;;;;;;;;;;;;;;5105029;28;19900;-75
2021/10/27 05:21:22;;;;;;;;;;;;;;;;;;5103457;28;20000;-74
2021/10/27 05:23:47;;;;;;;;;;;;;;;;;;5103430;28;19904;-75
2021/10/27 05:26:13;;;;;;;;;;;;;;;;;;5105846;28;20131;-75
2021/10/27 05:28:38;;;;;;;;;;;;;;;;;;5103862;28;19923;-75
2021/10/27 05:31:04;;;;;;;;;;;;;;;;;;5107092;28;19947;-75
2021/10/27 05:33:29;;;;;;;;;;;;;;;;;;5107465;28;19904;-75
2021/10/27 05:35:54;;;;;;;;;;;;;;;;;;5106134;28;19935;-75
2021/10/27 05:38:19;;;;;;;;;;;;;;;;;;5105156;28;19908;-75
2021/10/27 05:40:45;;;;;;;;;;;;;;;;;;5106861;28;19911;-75
2021/10/27 05:43:11;;;;;;;;;;;;;;;;;;5104958;28;19913;-75
2021/10/27 05:45:36;;;;;;;;;;;;;;;;;;5104954;28;19923;-75
2021/10/27 05:48:02;;;;;;;;;;;;;;;;;;5105800;28;19919;-75
2021/10/27 05:50:57;;;;;;;;;;;;;;;;;;5104048;28;19911;-75
2021/10/27 05:56:00;;;;;;;;;;;;;;;;;;5103661;28;19967;-75
2021/10/27 05:58:25;;;;;;;;;;;;;;;;;;5103793;28;19901;-73
2021/10/27 06:00:52;;;;;;;;;;;;;;;;;;5101456;28;19908;-74
2021/10/27 06:03:17;;;;;;;;;;;;;;;;;;5103889;28;19923;-74
2021/10/27 06:06:05;;;;;;;;;;;;;;;;;;5140159;27;19949;-75
2021/10/27 06:08:31;;;;;;;;;;;;;;;;;;5150790;27;19940;-75
2021/10/27 06:11:06;;;;;;;;;;;;;;;;;;5139776;28;19896;-75
2021/10/27 06:13:34;;;;;;;;;;;;;;;;;;5141544;28;19937;-74
2021/10/27 06:15:59;;;;;;;;;;;;;;;;;;5139891;28;19904;-73
2021/10/27 06:18:25;;;;;;;;;;;;;;;;;;5141567;28;19965;-73
2021/10/27 06:20:51;;;;;;;;;;;;;;;;;;5143095;28;19901;-74
2021/10/27 06:23:16;;;;;;;;;;;;;;;;;;5139626;28;19911;-74
2021/10/27 06:25:41;;;;;;;;;;;;;;;;;;5137110;28;19912;-74
2021/10/27 06:28:10;;;;;;;;;;;;;;;;;;5137582;28;19904;-74
2021/10/27 06:30:50;;;;;;;;;;;;;;;;;;5142443;28;19900;-74
2021/10/27 06:36:14;;;;;;;;;;;;;;;;;;5139883;28;19906;-73
2021/10/27 06:46:51;;;;;;;;;;;;;;;;;;5139778;28;20177;-74
2021/10/27 06:49:16;;;;;;;;;;;;;;;;;;5119641;28;19900;-74
2021/10/27 06:51:41;;;;;;;;;;;;;;;;;;5137391;28;19993;-74
2021/10/27 06:54:07;;;;;;;;;;;;;;;;;;5141017;28;19922;-74
2021/10/27 06:56:34;;;;;;;;;;;;;;;;;;5143245;28;19963;-74
2021/10/27 06:59:19;;;;;;;;;;;;;;;;;;5140626;28;19899;-72
2021/10/27 07:17:40;;;;;;;;;;;;;;;;;;5123735;28;19900;-74
2021/10/27 07:20:05;;;;;;;;;;;;;;;;;;5122432;27;19915;-74
2021/10/27 07:22:34;;;;;;;;;;;;;;;;;;5122395;28;19939;-75
2021/10/27 07:25:00;;;;;;;;;;;;;;;;;;5125723;28;20250;-75
2021/10/27 07:27:26;;;;;;;;;;;;;;;;;;5120243;28;19904;-74
2021/10/27 07:29:51;;;;;;;;;;;;;;;;;;5125274;27;19907;-74
2021/10/27 07:32:17;;;;;;;;;;;;;;;;;;5114724;27;19899;-73
2021/10/27 07:34:48;;;;;;;;;;;;;;;;;;5116365;27;20182;-75
2021/10/27 07:42:53;;;;;;;;;;;;;;;;;;5111957;27;19911;-75
2021/10/27 07:45:22;;;;;;;;;;;;;;;;;;5119359;27;19941;-75
2021/10/27 07:47:48;;;;;;;;;;;;;;;;;;5118073;27;19963;-74
2021/10/27 07:50:13;;;;;;;;;;;;;;;;;;5120412;27;19958;-74
2021/10/27 07:52:38;;;;;;;;;;;;;;;;;;5118233;27;19961;-74
2021/10/27 07:55:03;;;;;;;;;;;;;;;;;;5120357;27;19909;-73
2021/10/27 07:57:32;;;;;;;;;;;;;;;;;;5118589;27;19912;-73
2021/10/27 07:59:57;;;;;;;;;;;;;;;;;;5115187;27;19993;-73
2021/10/27 08:02:22;;;;;;;;;;;;;;;;;;5117869;27;19967;-73
2021/10/27 08:04:48;;;;;;;;;;;;;;;;;;5119216;27;19918;-72
2021/10/27 08:07:13;;;;;;;;;;;;;;;;;;5114627;27;19897;-73
2021/10/27 08:09:39;;;;;;;;;;;;;;;;;;5118774;27;19911;-73
2021/10/27 08:12:04;;;;;;;;;;;;;;;;;;5118841;27;19934;-73
2021/10/27 08:14:30;;;;;;;;;;;;;;;;;;5116096;27;20233;-73
2021/10/27 08:16:55;;;;;;;;;;;;;;;;;;5099480;27;19896;-73
2021/10/27 08:19:20;;;;;;;;;;;;;;;;;;5116602;27;19949;-74
2021/10/27 08:21:46;;;;;;;;;;;;;;;;;;5117695;27;20187;-73
2021/10/27 08:24:16;;;;;;;;;;;;;;;;;;5115862;27;19912;-73
2021/10/27 08:26:50;;;;;;;;;;;;;;;;;;5116392;27;20248;-73
2021/10/27 08:29:16;;;;;;;;;;;;;;;;;;5115985;27;19900;-73
2021/10/27 08:31:43;;;;;;;;;;;;;;;;;;5115062;27;19918;-73
2021/10/27 08:34:20;;;;;;;;;;;;;;;;;;5119680;27;19904;-74
2021/10/27 08:36:48;;;;;;;;;;;;;;;;;;5124603;27;19911;-73
2021/10/27 08:39:14;;;;;;;;;;;;;;;;;;5118768;27;19911;-73
2021/10/27 08:41:40;;;;;;;;;;;;;;;;;;5116557;27;19934;-73
2021/10/27 08:44:05;;;;;;;;;;;;;;;;;;5116651;27;19907;-73
2021/10/27 08:46:30;;;;;;;;;;;;;;;;;;5116810;27;19914;-73
2021/10/27 08:48:55;;;;;;;;;;;;;;;;;;5116883;27;19951;-73
2021/10/27 08:51:21;;;;;;;;;;;;;;;;;;5116265;27;19916;-72
2021/10/27 08:53:46;;;;;;;;;;;;;;;;;;5113877;28;19900;-72
2021/10/27 08:56:12;;;;;;;;;;;;;;;;;;5116332;27;20172;-73
2021/10/27 09:03:56;;;;;;;;;;;;;;;;;;5114920;28;19987;-73
2021/10/27 09:43:48;;;;;;;;;;;;;;;;;;5114803;27;19904;-74
2021/10/27 10:05:00;;;;;;;;;;;;;;;;;;5111166;28;19916;-74
2021/10/27 10:07:26;;;;;;;;;;;;;;;;;;5112928;28;19930;-73
2021/10/27 10:09:51;;;;;;;;;;;;;;;;;;5122748;28;19908;-74
2021/10/27 10:12:16;;;;;;;;;;;;;;;;;;5113137;28;19899;-73
2021/10/27 10:14:44;;;;;;;;;;;;;;;;;;5112418;28;19908;-73
2021/10/27 10:17:10;;;;;;;;;;;;;;;;;;5112992;28;19907;-74
2021/10/27 10:19:35;;;;;;;;;;;;;;;;;;5115029;28;19923;-73
2021/10/27 10:22:01;;;;;;;;;;;;;;;;;;5115714;28;19911;-74
2021/10/27 10:24:28;;;;;;;;;;;;;;;;;;5116580;28;19904;-75
2021/10/27 10:26:53;;;;;;;;;;;;;;;;;;5119880;28;19910;-72
2021/10/27 10:29:18;;;;;;;;;;;;;;;;;;5116265;28;19934;-73
2021/10/27 10:31:43;;;;;;;;;;;;;;;;;;5115062;28;19908;-73
2021/10/27 10:34:09;;;;;;;;;;;;;;;;;;5115591;28;19900;-72
2021/10/27 10:36:40;;;;;;;;;;;;;;;;;;5116461;28;19908;-72
2021/10/27 11:03:24;;;;;;;;;;;;;;;;;;5124600;27;19900;-73
2021/10/27 11:39:09;;;;;;;;;;;;;;;;;;5120649;27;19919;-73
2021/10/27 11:41:41;;;;;;;;;;;;;;;;;;5134646;28;19953;-74
2021/10/27 11:44:15;;;;;;;;;;;;;;;;;;5134602;28;19967;-74
2021/10/27 11:46:40;;;;;;;;;;;;;;;;;;5135178;28;19946;-74
2021/10/27 11:49:08;;;;;;;;;;;;;;;;;;5126846;27;19904;-74
2021/10/27 11:51:34;;;;;;;;;;;;;;;;;;5134825;27;19938;-73
2021/10/27 11:54:00;;;;;;;;;;;;;;;;;;5134929;28;19908;-73
2021/10/27 11:56:25;;;;;;;;;;;;;;;;;;5134944;28;20126;-73
2021/10/27 11:58:51;;;;;;;;;;;;;;;;;;5135581;28;19962;-72
2021/10/27 12:01:16;;;;;;;;;;;;;;;;;;5131749;28;19906;-73
2021/10/27 12:03:44;;;;;;;;;;;;;;;;;;5134133;28;20121;-73
2021/10/27 12:06:16;;;;;;;;;;;;;;;;;;5134045;28;19956;-73
2021/10/27 12:09:00;;;;;;;;;;;;;;;;;;5135565;27;19904;-73
2021/10/27 12:14:11;;;;;;;;;;;;;;;;;;5134230;28;19915;-73
2021/10/27 12:19:24;;;;;;;;;;;;;;;;;;5134409;28;19900;-73
2021/10/27 12:21:50;;;;;;;;;;;;;;;;;;5134637;27;19929;-73
2021/10/27 12:24:15;;;;;;;;;;;;;;;;;;5134590;28;19939;-72
2021/10/27 12:26:40;;;;;;;;;;;;;;;;;;5122303;28;19908;-72
2021/10/27 12:29:12;;;;;;;;;;;;;;;;;;5135089;28;19900;-72
2021/10/27 12:31:37;;;;;;;;;;;;;;;;;;5116972;28;19911;-71
2021/10/27 12:34:03;;;;;;;;;;;;;;;;;;5133192;28;19904;-71
2021/10/27 12:36:30;;;;;;;;;;;;;;;;;;5134366;28;19899;-72
2021/10/27 12:38:56;;;;;;;;;;;;;;;;;;5134728;28;19900;-72
2021/10/27 12:41:23;;;;;;;;;;;;;;;;;;5134510;28;19926;-71
2021/10/27 12:43:48;;;;;;;;;;;;;;;;;;5134395;28;19978;-71
2021/10/27 12:46:14;;;;;;;;;;;;;;;;;;5133139;28;19907;-71
2021/10/27 12:48:39;;;;;;;;;;;;;;;;;;5125677;28;19918;-71
2021/10/27 12:51:06;;;;;;;;;;;;;;;;;;5134265;27;19925;-71
2021/10/27 12:53:31;;;;;;;;;;;;;;;;;;5134241;28;19967;-71
2021/10/27 12:55:57;;;;;;;;;;;;;;;;;;5133643;28;19912;-71
2021/10/27 12:58:22;;;;;;;;;;;;;;;;;;5123231;28;20015;-71
2021/10/27 13:05:49;;;;;;;;;;;;;;;;;;5133754;28;19915;-71
2021/10/27 13:16:57;;;;;;;;;;;;;;;;;;5103829;28;19915;-71
2021/10/27 13:32:26;;;;;;;;;;;;;;;;;;5133636;28;19931;-71
2021/10/27 13:34:51;;;;;;;;;;;;;;;;;;5133197;28;19907;-72
2021/10/27 13:37:18;;;;;;;;;;;;;;;;;;5132643;28;19900;-71
2021/10/27 13:39:44;;;;;;;;;;;;;;;;;;5133608;28;19918;-71
2021/10/27 13:42:18;;;;;;;;;;;;;;;;;;5133806;28;19963;-71
2021/10/27 13:47:39;;;;;;;;;;;;;;;;;;5132677;28;19903;-71
2021/10/27 14:06:21;;;;;;;;;;;;;;;;;;5132292;28;19912;-71
2021/10/27 14:08:58;;;;;;;;;;;;;;;;;;5133095;28;19904;-71
2021/10/27 14:40:41;;;;;;;;;;;;;;;;;;5134240;28;19919;-72
2021/10/27 15:21:54;;;;;;;;;;;;;;;;;;5134964;27;20190;-71
2021/10/27 15:24:40;;;;;;;;;;;;;;;;;;5131754;28;19984;-72
2021/10/27 15:32:31;;;;;;;;;;;;;;;;;;5134898;28;19918;-71
2021/10/27 15:42:46;;;;;;;;;;;;;;;;;;5130907;28;19941;-71
2021/10/27 15:45:30;;;;;;;;;;;;;;;;;;5133322;28;19915;-71
2021/10/27 15:50:51;;;;;;;;;;;;;;;;;;5135165;27;19942;-71
2021/10/27 15:53:16;;;;;;;;;;;;;;;;;;5133520;28;19915;-71
2021/10/27 15:55:41;;;;;;;;;;;;;;;;;;5131465;28;19908;-71
2021/10/27 15:58:07;;;;;;;;;;;;;;;;;;5133518;28;19904;-71
2021/10/27 16:00:32;;;;;;;;;;;;;;;;;;5132906;28;19899;-71
2021/10/27 16:02:57;;;;;;;;;;;;;;;;;;5132965;28;19904;-72
2021/10/27 16:05:26;;;;;;;;;;;;;;;;;;5128930;28;19983;-72
2021/10/27 16:07:52;;;;;;;;;;;;;;;;;;5132249;27;19936;-72
2021/10/27 16:10:19;;;;;;;;;;;;;;;;;;5132543;28;19900;-72
2021/10/27 16:12:44;;;;;;;;;;;;;;;;;;5130499;27;19911;-72
2021/10/27 16:15:14;;;;;;;;;;;;;;;;;;5132121;28;19912;-72
2021/10/27 16:17:40;;;;;;;;;;;;;;;;;;5133718;28;19904;-72
2021/10/27 16:20:05;;;;;;;;;;;;;;;;;;5134848;28;19981;-72
2021/10/27 16:22:30;;;;;;;;;;;;;;;;;;5133024;28;19982;-72
2021/10/27 16:24:56;;;;;;;;;;;;;;;;;;5119740;27;20084;-72
2021/10/27 16:27:21;;;;;;;;;;;;;;;;;;5149469;27;19914;-72
2021/10/27 16:29:46;;;;;;;;;;;;;;;;;;5133392;28;19899;-72
2021/10/27 16:32:12;;;;;;;;;;;;;;;;;;5131278;28;19900;-72
2021/10/27 16:34:37;;;;;;;;;;;;;;;;;;5129636;28;19983;-72
2021/10/27 16:37:02;;;;;;;;;;;;;;;;;;5128829;28;19975;-72
2021/10/27 16:39:28;;;;;;;;;;;;;;;;;;5132179;28;19899;-72
2021/10/27 16:41:53;;;;;;;;;;;;;;;;;;5128782;28;19920;-72
2021/10/27 16:44:18;;;;;;;;;;;;;;;;;;5128646;28;19991;-72
2021/10/27 16:46:43;;;;;;;;;;;;;;;;;;5129377;28;19908;-72
2021/10/27 16:49:09;;;;;;;;;;;;;;;;;;5122028;28;19908;-72
2021/10/27 16:51:34;;;;;;;;;;;;;;;;;;5130239;28;19903;-72
2021/10/27 16:54:01;;;;;;;;;;;;;;;;;;5128774;28;19908;-72
2021/10/27 16:56:26;;;;;;;;;;;;;;;;;;5128920;28;19911;-72
2021/10/27 16:58:51;;;;;;;;;;;;;;;;;;5129676;28;19900;-72
2021/10/27 17:01:17;;;;;;;;;;;;;;;;;;5144301;27;19899;-72
2021/10/27 17:03:42;;;;;;;;;;;;;;;;;;5128252;28;19910;-72
2021/10/27 17:06:07;;;;;;;;;;;;;;;;;;5131245;28;19963;-72
2021/10/27 17:08:32;;;;;;;;;;;;;;;;;;5152197;27;19920;-72
2021/10/27 17:10:58;;;;;;;;;;;;;;;;;;5129028;27;20298;-72
2021/10/27 17:13:24;;;;;;;;;;;;;;;;;;5128997;28;19920;-71
2021/10/27 17:15:49;;;;;;;;;;;;;;;;;;5129701;28;19904;-72
2021/10/27 17:18:14;;;;;;;;;;;;;;;;;;5127789;28;19904;-72
2021/10/27 17:20:39;;;;;;;;;;;;;;;;;;5130923;28;19900;-72
2021/10/27 17:23:05;;;;;;;;;;;;;;;;;;5130382;27;19953;-72
2021/10/27 17:25:30;;;;;;;;;;;;;;;;;;5128425;28;19967;-72
2021/10/27 17:27:55;;;;;;;;;;;;;;;;;;5124565;27;19908;-72
2021/10/27 17:30:21;;;;;;;;;;;;;;;;;;5120649;27;19899;-72
2021/10/27 17:32:46;;;;;;;;;;;;;;;;;;5124855;27;19900;-72
2021/10/27 17:35:15;;;;;;;;;;;;;;;;;;5130453;27;19979;-71
2021/10/27 17:37:40;;;;;;;;;;;;;;;;;;5131655;27;19908;-72
2021/10/27 17:40:12;;;;;;;;;;;;;;;;;;5128323;27;19908;-72
2021/10/27 17:42:38;;;;;;;;;;;;;;;;;;5129552;28;20345;-71
2021/10/27 17:45:04;;;;;;;;;;;;;;;;;;5126513;28;19971;-72
2021/10/27 17:47:30;;;;;;;;;;;;;;;;;;5131798;28;19911;-71
2021/10/27 17:50:14;;;;;;;;;;;;;;;;;;5127666;28;19927;-72
2021/10/27 17:57:26;;;;;;;;;;;;;;;;;;5130994;28;19939;-72
2021/10/27 18:00:46;;;;;;;;;;;;;;;;;;5127319;28;19971;-72
2021/10/27 18:03:11;;;;;;;;;;;;;;;;;;5132446;28;19908;-72
2021/10/27 18:05:36;;;;;;;;;;;;;;;;;;5127361;28;19904;-72
2021/10/27 18:08:02;;;;;;;;;;;;;;;;;;5130944;28;19999;-72
2021/10/27 18:10:27;;;;;;;;;;;;;;;;;;5129001;28;19907;-71
2021/10/27 18:12:53;;;;;;;;;;;;;;;;;;5133021;28;19900;-73
2021/10/27 18:15:19;;;;;;;;;;;;;;;;;;5132371;28;19915;-72
2021/10/27 18:17:44;;;;;;;;;;;;;;;;;;5133945;28;19911;-72
2021/10/27 18:20:12;;;;;;;;;;;;;;;;;;5134439;28;19896;-72
2021/10/27 18:25:23;;;;;;;;;;;;;;;;;;5134620;28;19900;-72
2021/10/27 18:38:48;;;;;;;;;;;;;;;;;;5134708;28;19904;-72
2021/10/27 18:43:38;;;;;;;;;;;;;;;;;;5134737;28;19933;-73
2021/10/27 18:46:06;;;;;;;;;;;;;;;;;;5132827;28;19919;-72
2021/10/27 18:48:31;;;;;;;;;;;;;;;;;;5133247;28;19900;-72
2021/10/27 18:51:05;;;;;;;;;;;;;;;;;;5134681;28;19926;-73
2021/10/27 18:58:30;;;;;;;;;;;;;;;;;;5134714;28;19918;-73
2021/10/27 19:12:10;;;;;;;;;;;;;;;;;;5135184;28;19935;-72
2021/10/27 19:17:16;;;;;;;;;;;;;;;;;;5135575;28;19929;-72
2021/10/27 19:19:41;;;;;;;;;;;;;;;;;;5135810;27;20224;-72
2021/10/27 19:22:07;;;;;;;;;;;;;;;;;;5135846;28;20106;-72
2021/10/27 19:24:46;;;;;;;;;;;;;;;;;;5136593;28;19907;-72
2021/10/27 19:27:18;;;;;;;;;;;;;;;;;;5136630;28;19922;-72
2021/10/27 19:29:55;;;;;;;;;;;;;;;;;;5137566;28;19908;-72
2021/10/27 20:07:55;;;;;;;;;;;;;;;;;;5131550;28;19900;-72
2021/10/27 20:24:51;;;;;;;;;;;;;;;;;;5131872;28;19907;-73
2021/10/27 20:27:07;;;;;;;;;;;;;;;;;;5146974;27;19907;-73
2021/10/27 20:51:33;;;;;;;;;;;;;;;;;;5135596;28;19919;-73
2021/10/27 20:53:59;;;;;;;;;;;;;;;;;;5148810;27;19911;-73
2021/10/27 20:56:25;;;;;;;;;;;;;;;;;;5132901;27;19912;-74
2021/10/27 21:01:31;;;;;;;;;;;;;;;;;;5133336;27;19912;-73
2021/10/27 21:14:39;;;;;;;;;;;;;;;;;;5131650;28;19937;-72
2021/10/27 21:17:04;;;;;;;;;;;;;;;;;;5134492;28;19903;-73
2021/10/27 21:19:30;;;;;;;;;;;;;;;;;;5132967;28;19900;-73
2021/10/27 21:21:55;;;;;;;;;;;;;;;;;;5133384;28;19899;-72
2021/10/27 21:24:20;;;;;;;;;;;;;;;;;;5130349;27;19935;-73
2021/10/27 21:26:47;;;;;;;;;;;;;;;;;;5132306;28;19953;-72
2021/10/27 21:29:19;;;;;;;;;;;;;;;;;;5134523;27;19938;-72
2021/10/27 21:44:47;;;;;;;;;;;;;;;;;;5132586;28;19908;-72
2021/10/27 21:47:13;;;;;;;;;;;;;;;;;;5124163;27;19910;-72
2021/10/27 21:49:39;;;;;;;;;;;;;;;;;;5133435;28;20027;-72
2021/10/27 21:52:05;;;;;;;;;;;;;;;;;;5132414;28;19942;-71
2021/10/27 21:54:31;;;;;;;;;;;;;;;;;;5132184;28;19912;-71
2021/10/27 21:56:56;;;;;;;;;;;;;;;;;;5152310;27;19915;-72
2021/10/27 21:59:22;;;;;;;;;;;;;;;;;;5132296;28;19925;-72
2021/10/27 22:01:50;;;;;;;;;;;;;;;;;;5130929;28;19926;-74
2021/10/27 22:04:16;;;;;;;;;;;;;;;;;;5133076;28;19912;-72
2021/10/27 22:06:41;;;;;;;;;;;;;;;;;;5131596;28;19925;-72
2021/10/27 22:09:06;;;;;;;;;;;;;;;;;;5133220;28;19926;-72
2021/10/27 22:11:33;;;;;;;;;;;;;;;;;;5132478;28;19933;-72
2021/10/27 22:13:58;;;;;;;;;;;;;;;;;;5133022;28;19900;-73
2021/10/27 22:16:24;;;;;;;;;;;;;;;;;;5114244;28;19925;-73
2021/10/27 22:18:50;;;;;;;;;;;;;;;;;;5133039;28;20186;-73
2021/10/27 22:21:16;;;;;;;;;;;;;;;;;;5132291;28;19907;-72
2021/10/27 22:23:42;;;;;;;;;;;;;;;;;;5128575;28;19907;-72
2021/10/27 22:26:07;;;;;;;;;;;;;;;;;;5131072;28;19976;-72
2021/10/27 22:28:32;;;;;;;;;;;;;;;;;;5132936;28;19954;-73
2021/10/27 22:30:58;;;;;;;;;;;;;;;;;;5132371;28;19896;-73
2021/10/27 22:33:23;;;;;;;;;;;;;;;;;;5149849;27;19971;-73
2021/10/27 22:35:50;;;;;;;;;;;;;;;;;;5152272;27;19920;-72
2021/10/27 22:38:15;;;;;;;;;;;;;;;;;;5132442;28;20017;-73
2021/10/27 22:40:41;;;;;;;;;;;;;;;;;;5133674;28;19900;-72
2021/10/27 22:43:06;;;;;;;;;;;;;;;;;;5133622;28;19903;-72
2021/10/27 22:45:31;;;;;;;;;;;;;;;;;;5134703;28;19900;-72
2021/10/27 22:47:57;;;;;;;;;;;;;;;;;;5137243;28;19907;-72
2021/10/27 22:50:22;;;;;;;;;;;;;;;;;;5138843;28;19906;-72
2021/10/27 22:52:51;;;;;;;;;;;;;;;;;;5138702;28;19907;-72
2021/10/27 22:55:17;;;;;;;;;;;;;;;;;;5138534;28;19942;-73
2021/10/27 22:57:42;;;;;;;;;;;;;;;;;;5135321;28;19903;-72
2021/10/27 23:00:22;;;;;;;;;;;;;;;;;;5129790;28;19907;-72
2021/10/27 23:41:02;;;;;;;;;;;;;;;;;;5125856;28;19963;-72
2021/10/27 23:43:34;;;;;;;;;;;;;;;;;;5136936;28;19974;-72
2021/10/27 23:45:59;;;;;;;;;;;;;;;;;;5136032;28;19912;-72
2021/10/27 23:48:24;;;;;;;;;;;;;;;;;;5137413;28;19927;-72
2021/10/27 23:50:52;;;;;;;;;;;;;;;;;;5136675;28;19896;-72
2021/10/27 23:53:24;;;;;;;;;;;;;;;;;;5137806;28;20218;-72
2021/10/27 23:56:03;;;;;;;;;;;;;;;;;;5136210;28;19912;-72
